Sharps Corner, South Dakota
Current Conditions -  °F | °C
As of 3:52 PM on Tuesday 25 Nov 2014 (Local Time) from KIEN Reporting Station
Overcast Overcast  
Wind Chill: 31°   Ceiling: 6000
Heat Index: 37°   Visibility: 10mi
Dew Point: 31°   Wind: 8mph
Humidity: 79%   Direction: 290°WNW
Pressure: 29.83"   Gusts: NA
Location:  43.2863°N, 102.209°W
Report Text: KIEN 252252Z AUTO 29007KT 10SM SCT043 BKN060 OVC085 03/M01 A2983 RMK AO2 SLP129 T00281006
Loading
Personal Weather Stations






























Interactive Weather Map New forecast layout! Learn more

10-Day Weather Forecast

Advertisements
Track Severe Weather on mobile